sensor_id;sensor_type;location;lat;lon;timestamp;pressure;altitude;pressure_sealevel;temperature
69597;BMP180;70000;51.176;-115.568;2023-06-10T00:00:19;86577.60;;;25.90
69597;BMP180;70000;51.176;-115.568;2023-06-10T00:02:49;86577.00;;;25.90
69597;BMP180;70000;51.176;-115.568;2023-06-10T00:05:18;86573.40;;;25.90
69597;BMP180;70000;51.176;-115.568;2023-06-10T00:07:49;86573.60;;;25.90
69597;BMP180;70000;51.176;-115.568;2023-06-10T00:10:19;86568.60;;;25.90
69597;BMP180;70000;51.176;-115.568;2023-06-10T00:12:48;86564.80;;;25.90
69597;BMP180;70000;51.176;-115.568;2023-06-10T00:15:18;86561.20;;;25.92
69597;BMP180;70000;51.176;-115.568;2023-06-10T00:17:47;86562.40;;;25.92
69597;BMP180;70000;51.176;-115.568;2023-06-10T00:20:17;86563.60;;;25.96
69597;BMP180;70000;51.176;-115.568;2023-06-10T00:22:46;86553.80;;;25.90
69597;BMP180;70000;51.176;-115.568;2023-06-10T00:25:24;86553.20;;;25.90
69597;BMP180;70000;51.176;-115.568;2023-06-10T00:27:56;86552.60;;;25.90
69597;BMP180;70000;51.176;-115.568;2023-06-10T00:30:25;86550.60;;;25.90
69597;BMP180;70000;51.176;-115.568;2023-06-10T00:32:54;86546.60;;;25.80
69597;BMP180;70000;51.176;-115.568;2023-06-10T00:35:27;86542.00;;;25.80
69597;BMP180;70000;51.176;-115.568;2023-06-10T00:37:56;86545.00;;;25.70
69597;BMP180;70000;51.176;-115.568;2023-06-10T00:40:25;86538.40;;;25.70
69597;BMP180;70000;51.176;-115.568;2023-06-10T00:42:59;86552.80;;;25.60
69597;BMP180;70000;51.176;-115.568;2023-06-10T00:45:29;86555.20;;;25.60
69597;BMP180;70000;51.176;-115.568;2023-06-10T00:48:01;86553.20;;;25.50
69597;BMP180;70000;51.176;-115.568;2023-06-10T00:50:31;86554.60;;;25.50
69597;BMP180;70000;51.176;-115.568;2023-06-10T00:53:01;86563.40;;;25.40
69597;BMP180;70000;51.176;-115.568;2023-06-10T00:55:37;86560.20;;;25.40
69597;BMP180;70000;51.176;-115.568;2023-06-10T00:58:09;86569.00;;;25.30
69597;BMP180;70000;51.176;-115.568;2023-06-10T01:00:38;86595.40;;;25.30
69597;BMP180;70000;51.176;-115.568;2023-06-10T01:03:07;86598.60;;;25.22
69597;BMP180;70000;51.176;-115.568;2023-06-10T01:05:41;86607.60;;;25.20
69597;BMP180;70000;51.176;-115.568;2023-06-10T01:08:40;86612.40;;;25.10
69597;BMP180;70000;51.176;-115.568;2023-06-10T01:11:25;86614.40;;;25.00
69597;BMP180;70000;51.176;-115.568;2023-06-10T01:14:04;86612.20;;;24.90
69597;BMP180;70000;51.176;-115.568;2023-06-10T01:16:55;86618.60;;;24.80
69597;BMP180;70000;51.176;-115.568;2023-06-10T01:19:28;86631.80;;;24.70
69597;BMP180;70000;51.176;-115.568;2023-06-10T01:22:00;86624.60;;;24.60
69597;BMP180;70000;51.176;-115.568;2023-06-10T01:24:29;86621.00;;;24.50
69597;BMP180;70000;51.176;-115.568;2023-06-10T01:27:09;86621.20;;;24.42
69597;BMP180;70000;51.176;-115.568;2023-06-10T01:29:46;86626.80;;;24.40
69597;BMP180;70000;51.176;-115.568;2023-06-10T01:32:26;86625.40;;;24.30
69597;BMP180;70000;51.176;-115.568;2023-06-10T01:35:00;86625.00;;;24.30
69597;BMP180;70000;51.176;-115.568;2023-06-10T01:37:32;86633.80;;;24.20
69597;BMP180;70000;51.176;-115.568;2023-06-10T01:40:03;86633.00;;;24.20
69597;BMP180;70000;51.176;-115.568;2023-06-10T01:42:35;86641.60;;;24.18
69597;BMP180;70000;51.176;-115.568;2023-06-10T01:45:15;86646.80;;;24.10
69597;BMP180;70000;51.176;-115.568;2023-06-10T01:47:48;86650.60;;;24.10
69597;BMP180;70000;51.176;-115.568;2023-06-10T01:50:18;86647.60;;;24.00
69597;BMP180;70000;51.176;-115.568;2023-06-10T01:52:50;86655.00;;;24.00
69597;BMP180;70000;51.176;-115.568;2023-06-10T01:55:22;86656.20;;;23.92
69597;BMP180;70000;51.176;-115.568;2023-06-10T01:57:59;86651.00;;;23.90
69597;BMP180;70000;51.176;-115.568;2023-06-10T02:00:28;86648.80;;;23.80
69597;BMP180;70000;51.176;-115.568;2023-06-10T02:02:57;86647.00;;;23.80
69597;BMP180;70000;51.176;-115.568;2023-06-10T02:05:39;86643.20;;;23.70
69597;BMP180;70000;51.176;-115.568;2023-06-10T02:08:14;86646.40;;;23.70
69597;BMP180;70000;51.176;-115.568;2023-06-10T02:10:44;86640.00;;;23.60
69597;BMP180;70000;51.176;-115.568;2023-06-10T02:13:13;86652.20;;;23.60
69597;BMP180;70000;51.176;-115.568;2023-06-10T02:15:43;86634.40;;;23.54
69597;BMP180;70000;51.176;-115.568;2023-06-10T02:18:12;86643.40;;;23.50
69597;BMP180;70000;51.176;-115.568;2023-06-10T02:20:41;86648.60;;;23.40
69597;BMP180;70000;51.176;-115.568;2023-06-10T02:23:14;86644.00;;;23.40
69597;BMP180;70000;51.176;-115.568;2023-06-10T02:25:44;86641.40;;;23.30
69597;BMP180;70000;51.176;-115.568;2023-06-10T02:28:16;86651.80;;;23.26
69597;BMP180;70000;51.176;-115.568;2023-06-10T02:30:49;86643.40;;;23.20
69597;BMP180;70000;51.176;-115.568;2023-06-10T02:33:18;86641.20;;;23.20
69597;BMP180;70000;51.176;-115.568;2023-06-10T02:35:48;86638.00;;;23.18
69597;BMP180;70000;51.176;-115.568;2023-06-10T02:38:18;86633.80;;;23.16
69597;BMP180;70000;51.176;-115.568;2023-06-10T02:40:47;86637.00;;;23.10
69597;BMP180;70000;51.176;-115.568;2023-06-10T02:43:16;86639.00;;;23.10
69597;BMP180;70000;51.176;-115.568;2023-06-10T02:45:48;86644.20;;;23.10
69597;BMP180;70000;51.176;-115.568;2023-06-10T02:48:17;86645.20;;;23.10
69597;BMP180;70000;51.176;-115.568;2023-06-10T02:50:47;86652.80;;;23.10
69597;BMP180;70000;51.176;-115.568;2023-06-10T02:53:16;86657.40;;;23.00
69597;BMP180;70000;51.176;-115.568;2023-06-10T02:55:45;86654.60;;;23.00
69597;BMP180;70000;51.176;-115.568;2023-06-10T02:58:14;86647.80;;;22.90
69597;BMP180;70000;51.176;-115.568;2023-06-10T03:00:46;86640.00;;;22.90
69597;BMP180;70000;51.176;-115.568;2023-06-10T03:03:16;86648.40;;;22.80
69597;BMP180;70000;51.176;-115.568;2023-06-10T03:05:48;86645.80;;;22.80
69597;BMP180;70000;51.176;-115.568;2023-06-10T03:08:36;86657.00;;;22.70
69597;BMP180;70000;51.176;-115.568;2023-06-10T03:11:06;86635.20;;;22.68
69597;BMP180;70000;51.176;-115.568;2023-06-10T03:13:39;86637.00;;;22.60
69597;BMP180;70000;51.176;-115.568;2023-06-10T03:16:11;86653.80;;;22.60
69597;BMP180;70000;51.176;-115.568;2023-06-10T03:18:49;86649.40;;;22.60
69597;BMP180;70000;51.176;-115.568;2023-06-10T03:21:20;86657.40;;;22.52
69597;BMP180;70000;51.176;-115.568;2023-06-10T03:23:50;86646.20;;;22.50
69597;BMP180;70000;51.176;-115.568;2023-06-10T03:26:19;86645.80;;;22.50
69597;BMP180;70000;51.176;-115.568;2023-06-10T03:28:50;86637.60;;;22.42
69597;BMP180;70000;51.176;-115.568;2023-06-10T03:31:20;86632.20;;;22.40
69597;BMP180;70000;51.176;-115.568;2023-06-10T03:33:54;86632.60;;;22.30
69597;BMP180;70000;51.176;-115.568;2023-06-10T03:36:23;86629.20;;;22.30
69597;BMP180;70000;51.176;-115.568;2023-06-10T03:38:56;86632.40;;;22.30
69597;BMP180;70000;51.176;-115.568;2023-06-10T03:41:25;86623.80;;;22.28
69597;BMP180;70000;51.176;-115.568;2023-06-10T03:43:55;86625.40;;;22.20
69597;BMP180;70000;51.176;-115.568;2023-06-10T03:46:27;86620.60;;;22.20
69597;BMP180;70000;51.176;-115.568;2023-06-10T03:48:57;86614.60;;;22.12
69597;BMP180;70000;51.176;-115.568;2023-06-10T03:51:29;86615.80;;;22.10
69597;BMP180;70000;51.176;-115.568;2023-06-10T03:53:58;86616.60;;;22.00
69597;BMP180;70000;51.176;-115.568;2023-06-10T03:56:27;86611.60;;;21.96
69597;BMP180;70000;51.176;-115.568;2023-06-10T03:58:56;86610.20;;;21.90
69597;BMP180;70000;51.176;-115.568;2023-06-10T04:01:26;86604.80;;;21.90
69597;BMP180;70000;51.176;-115.568;2023-06-10T04:03:55;86607.80;;;21.90
69597;BMP180;70000;51.176;-115.568;2023-06-10T04:06:24;86603.80;;;21.80
69597;BMP180;70000;51.176;-115.568;2023-06-10T04:08:54;86604.20;;;21.80
69597;BMP180;70000;51.176;-115.568;2023-06-10T04:11:24;86602.00;;;21.70
69597;BMP180;70000;51.176;-115.568;2023-06-10T04:13:53;86605.40;;;21.70
69597;BMP180;70000;51.176;-115.568;2023-06-10T04:16:22;86607.40;;;21.60
69597;BMP180;70000;51.176;-115.568;2023-06-10T04:18:51;86608.80;;;21.60
69597;BMP180;70000;51.176;-115.568;2023-06-10T04:21:21;86606.00;;;21.60
69597;BMP180;70000;51.176;-115.568;2023-06-10T04:23:50;86603.00;;;21.58
69597;BMP180;70000;51.176;-115.568;2023-06-10T04:26:22;86607.20;;;21.52
69597;BMP180;70000;51.176;-115.568;2023-06-10T04:28:51;86606.40;;;21.50
69597;BMP180;70000;51.176;-115.568;2023-06-10T04:31:21;86605.80;;;21.50
69597;BMP180;70000;51.176;-115.568;2023-06-10T04:33:59;86601.20;;;21.50
69597;BMP180;70000;51.176;-115.568;2023-06-10T04:36:29;86601.00;;;21.50
69597;BMP180;70000;51.176;-115.568;2023-06-10T04:39:01;86598.40;;;21.50
69597;BMP180;70000;51.176;-115.568;2023-06-10T04:41:30;86609.20;;;21.50
69597;BMP180;70000;51.176;-115.568;2023-06-10T04:44:02;86607.80;;;21.50
69597;BMP180;70000;51.176;-115.568;2023-06-10T04:46:31;86611.80;;;21.40
69597;BMP180;70000;51.176;-115.568;2023-06-10T04:49:01;86611.20;;;21.40
69597;BMP180;70000;51.176;-115.568;2023-06-10T04:51:30;86611.20;;;21.40
69597;BMP180;70000;51.176;-115.568;2023-06-10T04:54:03;86613.80;;;21.40
69597;BMP180;70000;51.176;-115.568;2023-06-10T04:56:35;86616.40;;;21.32
69597;BMP180;70000;51.176;-115.568;2023-06-10T04:59:04;86620.60;;;21.30
69597;BMP180;70000;51.176;-115.568;2023-06-10T05:01:33;86618.20;;;21.30
69597;BMP180;70000;51.176;-115.568;2023-06-10T05:04:02;86618.20;;;21.20
69597;BMP180;70000;51.176;-115.568;2023-06-10T05:06:32;86620.00;;;21.20
69597;BMP180;70000;51.176;-115.568;2023-06-10T05:09:02;86618.60;;;21.20
69597;BMP180;70000;51.176;-115.568;2023-06-10T05:11:31;86616.00;;;21.10
69597;BMP180;70000;51.176;-115.568;2023-06-10T05:14:00;86619.20;;;21.10
69597;BMP180;70000;51.176;-115.568;2023-06-10T05:16:34;86616.20;;;21.04
69597;BMP180;70000;51.176;-115.568;2023-06-10T05:19:04;86612.00;;;21.00
69597;BMP180;70000;51.176;-115.568;2023-06-10T05:21:35;86612.40;;;21.00
69597;BMP180;70000;51.176;-115.568;2023-06-10T05:24:05;86607.00;;;21.00
69597;BMP180;70000;51.176;-115.568;2023-06-10T05:26:45;86613.00;;;20.90
69597;BMP180;70000;51.176;-115.568;2023-06-10T05:29:23;86618.40;;;20.90
69597;BMP180;70000;51.176;-115.568;2023-06-10T05:31:52;86614.80;;;20.90
69597;BMP180;70000;51.176;-115.568;2023-06-10T05:34:22;86615.20;;;20.90
69597;BMP180;70000;51.176;-115.568;2023-06-10T05:37:06;86616.20;;;20.80
69597;BMP180;70000;51.176;-115.568;2023-06-10T05:39:36;86616.60;;;20.80
69597;BMP180;70000;51.176;-115.568;2023-06-10T05:42:09;86610.80;;;20.72
69597;BMP180;70000;51.176;-115.568;2023-06-10T05:44:41;86616.60;;;20.70
69597;BMP180;70000;51.176;-115.568;2023-06-10T05:47:11;86613.40;;;20.70
69597;BMP180;70000;51.176;-115.568;2023-06-10T05:49:41;86611.40;;;20.70
69597;BMP180;70000;51.176;-115.568;2023-06-10T05:52:20;86602.60;;;20.70
69597;BMP180;70000;51.176;-115.568;2023-06-10T05:54:50;86603.20;;;20.68
69597;BMP180;70000;51.176;-115.568;2023-06-10T05:57:26;86604.40;;;20.60
69597;BMP180;70000;51.176;-115.568;2023-06-10T05:59:56;86602.80;;;20.60
69597;BMP180;70000;51.176;-115.568;2023-06-10T06:02:50;86597.00;;;20.60
69597;BMP180;70000;51.176;-115.568;2023-06-10T06:05:31;86595.20;;;20.58
69597;BMP180;70000;51.176;-115.568;2023-06-10T06:08:07;86597.60;;;20.50
69597;BMP180;70000;51.176;-115.568;2023-06-10T06:10:42;86602.20;;;20.50
69597;BMP180;70000;51.176;-115.568;2023-06-10T06:13:19;86598.60;;;20.50
69597;BMP180;70000;51.176;-115.568;2023-06-10T06:15:57;86591.60;;;20.50
69597;BMP180;70000;51.176;-115.568;2023-06-10T06:18:29;86584.40;;;20.50
69597;BMP180;70000;51.176;-115.568;2023-06-10T06:20:58;86580.80;;;20.40
69597;BMP180;70000;51.176;-115.568;2023-06-10T06:23:28;86586.80;;;20.40
69597;BMP180;70000;51.176;-115.568;2023-06-10T06:26:01;86584.80;;;20.40
69597;BMP180;70000;51.176;-115.568;2023-06-10T06:28:34;86588.00;;;20.40
69597;BMP180;70000;51.176;-115.568;2023-06-10T06:31:24;86584.80;;;20.40
69597;BMP180;70000;51.176;-115.568;2023-06-10T06:33:57;86580.80;;;20.40
69597;BMP180;70000;51.176;-115.568;2023-06-10T06:36:26;86575.20;;;20.32
69597;BMP180;70000;51.176;-115.568;2023-06-10T06:39:05;86570.00;;;20.30
69597;BMP180;70000;51.176;-115.568;2023-06-10T06:41:37;86573.40;;;20.30
69597;BMP180;70000;51.176;-115.568;2023-06-10T06:44:26;86575.20;;;20.30
69597;BMP180;70000;51.176;-115.568;2023-06-10T06:46:55;86572.60;;;20.22
69597;BMP180;70000;51.176;-115.568;2023-06-10T06:49:44;86575.00;;;20.20
69597;BMP180;70000;51.176;-115.568;2023-06-10T06:52:16;86578.20;;;20.20
69597;BMP180;70000;51.176;-115.568;2023-06-10T06:54:58;86585.20;;;20.12
69597;BMP180;70000;51.176;-115.568;2023-06-10T06:57:28;86589.20;;;20.10
69597;BMP180;70000;51.176;-115.568;2023-06-10T07:00:08;86581.80;;;20.10
69597;BMP180;70000;51.176;-115.568;2023-06-10T07:02:38;86580.40;;;20.02
69597;BMP180;70000;51.176;-115.568;2023-06-10T07:05:10;86582.60;;;20.00
69597;BMP180;70000;51.176;-115.568;2023-06-10T07:07:40;86581.80;;;20.00
69597;BMP180;70000;51.176;-115.568;2023-06-10T07:10:18;86581.20;;;19.94
69597;BMP180;70000;51.176;-115.568;2023-06-10T07:12:53;86581.00;;;19.90
69597;BMP180;70000;51.176;-115.568;2023-06-10T07:15:26;86576.20;;;19.90
69597;BMP180;70000;51.176;-115.568;2023-06-10T07:17:58;86576.60;;;19.80
69597;BMP180;70000;51.176;-115.568;2023-06-10T07:20:36;86572.20;;;19.80
69597;BMP180;70000;51.176;-115.568;2023-06-10T07:23:08;86572.60;;;19.80
69597;BMP180;70000;51.176;-115.568;2023-06-10T07:25:41;86573.80;;;19.70
69597;BMP180;70000;51.176;-115.568;2023-06-10T07:28:24;86564.60;;;19.62
69597;BMP180;70000;51.176;-115.568;2023-06-10T07:30:56;86568.60;;;19.60
69597;BMP180;70000;51.176;-115.568;2023-06-10T07:33:38;86572.40;;;19.50
69597;BMP180;70000;51.176;-115.568;2023-06-10T07:36:17;86572.80;;;19.50
69597;BMP180;70000;51.176;-115.568;2023-06-10T07:38:49;86568.20;;;19.40
69597;BMP180;70000;51.176;-115.568;2023-06-10T07:41:32;86566.00;;;19.40
69597;BMP180;70000;51.176;-115.568;2023-06-10T07:44:04;86566.80;;;19.30
69597;BMP180;70000;51.176;-115.568;2023-06-10T07:46:39;86563.80;;;19.20
69597;BMP180;70000;51.176;-115.568;2023-06-10T07:49:14;86560.80;;;19.18
69597;BMP180;70000;51.176;-115.568;2023-06-10T07:51:47;86567.20;;;19.10
69597;BMP180;70000;51.176;-115.568;2023-06-10T07:54:19;86573.00;;;19.10
69597;BMP180;70000;51.176;-115.568;2023-06-10T07:57:05;86574.40;;;19.00
69597;BMP180;70000;51.176;-115.568;2023-06-10T07:59:43;86569.80;;;19.00
69597;BMP180;70000;51.176;-115.568;2023-06-10T08:02:16;86566.60;;;18.98
69597;BMP180;70000;51.176;-115.568;2023-06-10T08:04:45;86569.00;;;18.90
69597;BMP180;70000;51.176;-115.568;2023-06-10T08:07:14;86563.60;;;18.90
69597;BMP180;70000;51.176;-115.568;2023-06-10T08:09:44;86562.20;;;18.80
69597;BMP180;70000;51.176;-115.568;2023-06-10T08:12:16;86563.00;;;18.80
69597;BMP180;70000;51.176;-115.568;2023-06-10T08:14:45;86561.20;;;18.70
69597;BMP180;70000;51.176;-115.568;2023-06-10T08:17:19;86566.80;;;18.70
69597;BMP180;70000;51.176;-115.568;2023-06-10T08:19:51;86568.40;;;18.70
69597;BMP180;70000;51.176;-115.568;2023-06-10T08:22:32;86571.20;;;18.60
69597;BMP180;70000;51.176;-115.568;2023-06-10T08:25:02;86569.00;;;18.60
69597;BMP180;70000;51.176;-115.568;2023-06-10T08:27:35;86571.80;;;18.52
69597;BMP180;70000;51.176;-115.568;2023-06-10T08:30:08;86572.00;;;18.50
69597;BMP180;70000;51.176;-115.568;2023-06-10T08:32:39;86570.80;;;18.48
69597;BMP180;70000;51.176;-115.568;2023-06-10T08:35:08;86565.40;;;18.40
69597;BMP180;70000;51.176;-115.568;2023-06-10T08:37:38;86563.20;;;18.40
69597;BMP180;70000;51.176;-115.568;2023-06-10T08:40:11;86565.40;;;18.40
69597;BMP180;70000;51.176;-115.568;2023-06-10T08:43:17;86562.20;;;18.32
69597;BMP180;70000;51.176;-115.568;2023-06-10T08:45:58;86551.80;;;18.30
69597;BMP180;70000;51.176;-115.568;2023-06-10T08:48:37;86550.60;;;18.30
69597;BMP180;70000;51.176;-115.568;2023-06-10T08:51:11;86556.00;;;18.28
69597;BMP180;70000;51.176;-115.568;2023-06-10T08:53:55;86557.40;;;18.20
69597;BMP180;70000;51.176;-115.568;2023-06-10T08:56:39;86559.00;;;18.20
69597;BMP180;70000;51.176;-115.568;2023-06-10T08:59:09;86556.20;;;18.18
69597;BMP180;70000;51.176;-115.568;2023-06-10T09:01:47;86554.60;;;18.12
69597;BMP180;70000;51.176;-115.568;2023-06-10T09:04:19;86550.40;;;18.10
69597;BMP180;70000;51.176;-115.568;2023-06-10T09:06:50;86544.40;;;18.06
69597;BMP180;70000;51.176;-115.568;2023-06-10T09:09:23;86542.60;;;18.00
69597;BMP180;70000;51.176;-115.568;2023-06-10T09:11:55;86548.40;;;18.00
69597;BMP180;70000;51.176;-115.568;2023-06-10T09:14:25;86545.60;;;18.00
69597;BMP180;70000;51.176;-115.568;2023-06-10T09:16:55;86547.40;;;17.90
69597;BMP180;70000;51.176;-115.568;2023-06-10T09:19:29;86549.40;;;17.90
69597;BMP180;70000;51.176;-115.568;2023-06-10T09:22:02;86547.00;;;17.90
69597;BMP180;70000;51.176;-115.568;2023-06-10T09:24:34;86546.80;;;17.90
69597;BMP180;70000;51.176;-115.568;2023-06-10T09:27:07;86540.80;;;17.90
69597;BMP180;70000;51.176;-115.568;2023-06-10T09:29:54;86540.80;;;17.90
69597;BMP180;70000;51.176;-115.568;2023-06-10T09:32:24;86538.20;;;17.90
69597;BMP180;70000;51.176;-115.568;2023-06-10T09:34:54;86542.60;;;17.90
69597;BMP180;70000;51.176;-115.568;2023-06-10T09:37:24;86544.20;;;17.86
69597;BMP180;70000;51.176;-115.568;2023-06-10T09:40:05;86540.80;;;17.80
69597;BMP180;70000;51.176;-115.568;2023-06-10T09:42:39;86541.80;;;17.80
69597;BMP180;70000;51.176;-115.568;2023-06-10T09:45:11;86533.00;;;17.80
69597;BMP180;70000;51.176;-115.568;2023-06-10T09:47:53;86532.00;;;17.80
69597;BMP180;70000;51.176;-115.568;2023-06-10T09:50:25;86528.60;;;17.80
69597;BMP180;70000;51.176;-115.568;2023-06-10T09:52:56;86533.00;;;17.72
69597;BMP180;70000;51.176;-115.568;2023-06-10T09:55:33;86535.20;;;17.78
69597;BMP180;70000;51.176;-115.568;2023-06-10T09:58:05;86532.00;;;17.78
69597;BMP180;70000;51.176;-115.568;2023-06-10T10:00:37;86531.20;;;17.72
69597;BMP180;70000;51.176;-115.568;2023-06-10T10:03:07;86529.80;;;17.70
69597;BMP180;70000;51.176;-115.568;2023-06-10T10:05:38;86526.60;;;17.70
69597;BMP180;70000;51.176;-115.568;2023-06-10T10:08:11;86524.40;;;17.70
69597;BMP180;70000;51.176;-115.568;2023-06-10T10:10:44;86517.80;;;17.70
69597;BMP180;70000;51.176;-115.568;2023-06-10T10:13:19;86516.80;;;17.70
69597;BMP180;70000;51.176;-115.568;2023-06-10T10:16:01;86517.00;;;17.70
69597;BMP180;70000;51.176;-115.568;2023-06-10T10:18:35;86509.00;;;17.70
69597;BMP180;70000;51.176;-115.568;2023-06-10T10:21:13;86498.20;;;17.70
69597;BMP180;70000;51.176;-115.568;2023-06-10T10:24:21;86491.20;;;17.70
69597;BMP180;70000;51.176;-115.568;2023-06-10T10:26:59;86481.00;;;17.70
69597;BMP180;70000;51.176;-115.568;2023-06-10T10:29:47;86487.40;;;17.70
69597;BMP180;70000;51.176;-115.568;2023-06-10T10:32:18;86496.60;;;17.70
69597;BMP180;70000;51.176;-115.568;2023-06-10T10:35:08;86499.60;;;17.70
69597;BMP180;70000;51.176;-115.568;2023-06-10T10:37:41;86509.40;;;17.60
69597;BMP180;70000;51.176;-115.568;2023-06-10T10:40:12;86511.60;;;17.60
69597;BMP180;70000;51.176;-115.568;2023-06-10T10:42:45;86518.00;;;17.50
69597;BMP180;70000;51.176;-115.568;2023-06-10T10:45:14;86516.20;;;17.50
69597;BMP180;70000;51.176;-115.568;2023-06-10T10:47:52;86513.40;;;17.50
69597;BMP180;70000;51.176;-115.568;2023-06-10T10:50:22;86510.60;;;17.50
69597;BMP180;70000;51.176;-115.568;2023-06-10T10:53:03;86516.20;;;17.50
69597;BMP180;70000;51.176;-115.568;2023-06-10T10:55:33;86514.60;;;17.50
69597;BMP180;70000;51.176;-115.568;2023-06-10T10:58:07;86515.20;;;17.58
69597;BMP180;70000;51.176;-115.568;2023-06-10T11:00:44;86517.00;;;17.60
69597;BMP180;70000;51.176;-115.568;2023-06-10T11:03:18;86520.00;;;17.60
69597;BMP180;70000;51.176;-115.568;2023-06-10T11:05:49;86525.00;;;17.60
69597;BMP180;70000;51.176;-115.568;2023-06-10T11:11:23;86525.20;;;17.68
69597;BMP180;70000;51.176;-115.568;2023-06-10T11:16:42;86526.00;;;17.60
69597;BMP180;70000;51.176;-115.568;2023-06-10T11:19:38;86520.60;;;17.60
69597;BMP180;70000;51.176;-115.568;2023-06-10T11:22:16;86521.20;;;17.50
69597;BMP180;70000;51.176;-115.568;2023-06-10T11:24:52;86527.20;;;17.54
69597;BMP180;70000;51.176;-115.568;2023-06-10T11:27:23;86525.20;;;17.56
69597;BMP180;70000;51.176;-115.568;2023-06-10T11:32:34;86522.20;;;17.60
69597;BMP180;70000;51.176;-115.568;2023-06-10T11:35:05;86519.00;;;17.54
69597;BMP180;70000;51.176;-115.568;2023-06-10T11:37:36;86509.00;;;17.50
69597;BMP180;70000;51.176;-115.568;2023-06-10T11:40:07;86505.00;;;17.50
69597;BMP180;70000;51.176;-115.568;2023-06-10T11:42:43;86513.00;;;17.50
69597;BMP180;70000;51.176;-115.568;2023-06-10T11:45:17;86513.80;;;17.50
69597;BMP180;70000;51.176;-115.568;2023-06-10T11:47:59;86506.40;;;17.50
69597;BMP180;70000;51.176;-115.568;2023-06-10T11:50:32;86509.40;;;17.50
69597;BMP180;70000;51.176;-115.568;2023-06-10T11:53:02;86513.20;;;17.50
69597;BMP180;70000;51.176;-115.568;2023-06-10T11:55:46;86510.00;;;17.50
69597;BMP180;70000;51.176;-115.568;2023-06-10T11:58:21;86515.00;;;17.50
69597;BMP180;70000;51.176;-115.568;2023-06-10T12:00:54;86513.20;;;17.50
69597;BMP180;70000;51.176;-115.568;2023-06-10T12:03:25;86508.80;;;17.50
69597;BMP180;70000;51.176;-115.568;2023-06-10T12:06:05;86505.00;;;17.50
69597;BMP180;70000;51.176;-115.568;2023-06-10T12:08:42;86503.20;;;17.50
69597;BMP180;70000;51.176;-115.568;2023-06-10T12:11:12;86503.00;;;17.50
69597;BMP180;70000;51.176;-115.568;2023-06-10T12:13:49;86506.20;;;17.50
69597;BMP180;70000;51.176;-115.568;2023-06-10T12:16:19;86496.00;;;17.50
69597;BMP180;70000;51.176;-115.568;2023-06-10T12:18:49;86495.20;;;17.50
69597;BMP180;70000;51.176;-115.568;2023-06-10T12:21:25;86498.00;;;17.50
69597;BMP180;70000;51.176;-115.568;2023-06-10T12:24:06;86499.60;;;17.50
69597;BMP180;70000;51.176;-115.568;2023-06-10T12:26:46;86502.20;;;17.50
69597;BMP180;70000;51.176;-115.568;2023-06-10T12:29:23;86495.20;;;17.50
69597;BMP180;70000;51.176;-115.568;2023-06-10T12:32:07;86501.80;;;17.50
69597;BMP180;70000;51.176;-115.568;2023-06-10T12:34:39;86500.80;;;17.50
69597;BMP180;70000;51.176;-115.568;2023-06-10T12:37:13;86495.40;;;17.50
69597;BMP180;70000;51.176;-115.568;2023-06-10T12:39:51;86491.80;;;17.50
69597;BMP180;70000;51.176;-115.568;2023-06-10T12:42:26;86495.40;;;17.50
69597;BMP180;70000;51.176;-115.568;2023-06-10T12:44:55;86489.00;;;17.56
69597;BMP180;70000;51.176;-115.568;2023-06-10T12:47:37;86481.00;;;17.56
69597;BMP180;70000;51.176;-115.568;2023-06-10T12:50:08;86485.00;;;17.52
69597;BMP180;70000;51.176;-115.568;2023-06-10T12:52:37;86485.80;;;17.52
69597;BMP180;70000;51.176;-115.568;2023-06-10T12:55:07;86482.40;;;17.50
69597;BMP180;70000;51.176;-115.568;2023-06-10T12:57:49;86480.20;;;17.50
69597;BMP180;70000;51.176;-115.568;2023-06-10T13:00:19;86478.00;;;17.50
69597;BMP180;70000;51.176;-115.568;2023-06-10T13:02:55;86478.80;;;17.50
69597;BMP180;70000;51.176;-115.568;2023-06-10T13:05:27;86481.40;;;17.50
69597;BMP180;70000;51.176;-115.568;2023-06-10T13:07:57;86480.80;;;17.50
69597;BMP180;70000;51.176;-115.568;2023-06-10T13:10:27;86482.20;;;17.60
69597;BMP180;70000;51.176;-115.568;2023-06-10T13:12:58;86489.00;;;17.60
69597;BMP180;70000;51.176;-115.568;2023-06-10T13:15:28;86493.80;;;17.60
69597;BMP180;70000;51.176;-115.568;2023-06-10T13:18:13;86491.20;;;17.60
69597;BMP180;70000;51.176;-115.568;2023-06-10T13:20:45;86496.00;;;17.70
69597;BMP180;70000;51.176;-115.568;2023-06-10T13:23:14;86490.00;;;17.70
69597;BMP180;70000;51.176;-115.568;2023-06-10T13:25:49;86487.40;;;17.66
69597;BMP180;70000;51.176;-115.568;2023-06-10T13:28:18;86487.40;;;17.68
69597;BMP180;70000;51.176;-115.568;2023-06-10T13:30:51;86486.00;;;17.70
69597;BMP180;70000;51.176;-115.568;2023-06-10T13:33:20;86484.00;;;17.70
69597;BMP180;70000;51.176;-115.568;2023-06-10T13:35:50;86478.60;;;17.70
69597;BMP180;70000;51.176;-115.568;2023-06-10T13:38:19;86475.80;;;17.70
69597;BMP180;70000;51.176;-115.568;2023-06-10T13:40:48;86475.60;;;17.70
69597;BMP180;70000;51.176;-115.568;2023-06-10T13:43:20;86473.40;;;17.70
69597;BMP180;70000;51.176;-115.568;2023-06-10T13:45:54;86471.20;;;17.70
69597;BMP180;70000;51.176;-115.568;2023-06-10T13:48:29;86473.60;;;17.80
69597;BMP180;70000;51.176;-115.568;2023-06-10T13:51:00;86466.40;;;17.80
69597;BMP180;70000;51.176;-115.568;2023-06-10T13:53:30;86466.80;;;17.80
69597;BMP180;70000;51.176;-115.568;2023-06-10T13:55:59;86466.80;;;17.80
69597;BMP180;70000;51.176;-115.568;2023-06-10T13:58:28;86468.00;;;17.80
69597;BMP180;70000;51.176;-115.568;2023-06-10T14:01:01;86472.00;;;17.80
69597;BMP180;70000;51.176;-115.568;2023-06-10T14:03:36;86475.40;;;17.88
69597;BMP180;70000;51.176;-115.568;2023-06-10T14:06:12;86469.20;;;17.90
69597;BMP180;70000;51.176;-115.568;2023-06-10T14:08:44;86468.20;;;17.90
69597;BMP180;70000;51.176;-115.568;2023-06-10T14:11:14;86472.60;;;17.98
69597;BMP180;70000;51.176;-115.568;2023-06-10T14:13:43;86467.20;;;18.00